sensor_id;sensor_type;location;lat;lon;timestamp;pressure;altitude;pressure_sealevel;temperature;humidity
38812;BME280;24553;51.640;-0.752;2023-02-28T00:00:38;102554.09;;;0.03;100.00
38812;BME280;24553;51.640;-0.752;2023-02-28T00:03:04;102546.28;;;0.03;100.00
38812;BME280;24553;51.640;-0.752;2023-02-28T00:05:29;102551.75;;;-0.03;100.00
38812;BME280;24553;51.640;-0.752;2023-02-28T00:07:55;102553.88;;;-0.11;100.00
38812;BME280;24553;51.640;-0.752;2023-02-28T00:10:26;102548.13;;;-0.18;100.00
38812;BME280;24553;51.640;-0.752;2023-02-28T00:12:53;102556.97;;;-0.22;100.00
38812;BME280;24553;51.640;-0.752;2023-02-28T00:15:22;102554.72;;;-0.30;100.00
38812;BME280;24553;51.640;-0.752;2023-02-28T00:17:48;102556.50;;;-0.30;100.00
38812;BME280;24553;51.640;-0.752;2023-02-28T00:20:14;102559.00;;;-0.29;100.00
38812;BME280;24553;51.640;-0.752;2023-02-28T00:22:43;102552.16;;;-0.31;100.00
38812;BME280;24553;51.640;-0.752;2023-02-28T00:25:11;102556.69;;;-0.35;100.00
38812;BME280;24553;51.640;-0.752;2023-02-28T00:27:38;102555.84;;;-0.35;100.00
38812;BME280;24553;51.640;-0.752;2023-02-28T00:30:04;102560.22;;;-0.36;100.00
38812;BME280;24553;51.640;-0.752;2023-02-28T00:32:30;102559.59;;;-0.41;100.00
38812;BME280;24553;51.640;-0.752;2023-02-28T00:34:56;102572.69;;;-0.42;100.00
38812;BME280;24553;51.640;-0.752;2023-02-28T00:37:21;102566.19;;;-0.53;100.00
38812;BME280;24553;51.640;-0.752;2023-02-28T00:39:47;102570.56;;;-0.53;100.00
38812;BME280;24553;51.640;-0.752;2023-02-28T00:42:12;102576.47;;;-0.50;100.00
38812;BME280;24553;51.640;-0.752;2023-02-28T00:44:38;102567.03;;;-0.52;100.00
38812;BME280;24553;51.640;-0.752;2023-02-28T00:47:03;102567.31;;;-0.58;100.00
38812;BME280;24553;51.640;-0.752;2023-02-28T00:49:29;102568.22;;;-0.59;100.00
38812;BME280;24553;51.640;-0.752;2023-02-28T00:51:55;102571.03;;;-0.64;100.00
38812;BME280;24553;51.640;-0.752;2023-02-28T00:54:21;102569.47;;;-0.68;100.00
38812;BME280;24553;51.640;-0.752;2023-02-28T00:56:47;102566.94;;;-0.70;100.00
38812;BME280;24553;51.640;-0.752;2023-02-28T00:59:15;102563.47;;;-0.70;100.00
38812;BME280;24553;51.640;-0.752;2023-02-28T01:01:41;102565.22;;;-0.71;100.00
38812;BME280;24553;51.640;-0.752;2023-02-28T01:04:07;102574.94;;;-0.74;100.00
38812;BME280;24553;51.640;-0.752;2023-02-28T01:06:32;102567.13;;;-0.74;100.00
38812;BME280;24553;51.640;-0.752;2023-02-28T01:08:59;102568.81;;;-0.73;100.00
38812;BME280;24553;51.640;-0.752;2023-02-28T01:11:24;102568.09;;;-0.77;100.00
38812;BME280;24553;51.640;-0.752;2023-02-28T01:13:50;102570.78;;;-0.78;100.00
38812;BME280;24553;51.640;-0.752;2023-02-28T01:16:15;102570.72;;;-0.77;100.00
38812;BME280;24553;51.640;-0.752;2023-02-28T01:18:41;102569.09;;;-0.79;100.00
38812;BME280;24553;51.640;-0.752;2023-02-28T01:21:09;102577.41;;;-0.71;100.00
38812;BME280;24553;51.640;-0.752;2023-02-28T01:23:35;102583.47;;;-0.71;100.00
38812;BME280;24553;51.640;-0.752;2023-02-28T01:26:05;102578.13;;;-0.68;100.00
38812;BME280;24553;51.640;-0.752;2023-02-28T01:28:31;102576.38;;;-0.67;100.00
38812;BME280;24553;51.640;-0.752;2023-02-28T01:30:56;102581.38;;;-0.62;100.00
38812;BME280;24553;51.640;-0.752;2023-02-28T01:33:21;102576.16;;;-0.62;100.00
38812;BME280;24553;51.640;-0.752;2023-02-28T01:35:47;102577.78;;;-0.60;100.00
38812;BME280;24553;51.640;-0.752;2023-02-28T01:38:12;102578.50;;;-0.56;100.00
38812;BME280;24553;51.640;-0.752;2023-02-28T01:40:37;102571.66;;;-0.59;100.00
38812;BME280;24553;51.640;-0.752;2023-02-28T01:43:04;102569.22;;;-0.62;100.00
38812;BME280;24553;51.640;-0.752;2023-02-28T01:45:31;102564.25;;;-0.68;100.00
38812;BME280;24553;51.640;-0.752;2023-02-28T01:48:05;102565.97;;;-0.67;100.00
38812;BME280;24553;51.640;-0.752;2023-02-28T01:50:36;102564.34;;;-0.70;100.00
38812;BME280;24553;51.640;-0.752;2023-02-28T01:53:07;102564.38;;;-0.71;100.00
38812;BME280;24553;51.640;-0.752;2023-02-28T01:55:34;102564.34;;;-0.70;100.00
38812;BME280;24553;51.640;-0.752;2023-02-28T01:58:02;102568.66;;;-0.70;100.00
38812;BME280;24553;51.640;-0.752;2023-02-28T02:00:30;102569.88;;;-0.77;100.00
38812;BME280;24553;51.640;-0.752;2023-02-28T02:02:59;102560.44;;;-0.80;100.00
38812;BME280;24553;51.640;-0.752;2023-02-28T02:05:29;102565.75;;;-0.83;100.00
38812;BME280;24553;51.640;-0.752;2023-02-28T02:08:05;102563.16;;;-0.83;100.00
38812;BME280;24553;51.640;-0.752;2023-02-28T02:18:52;102554.69;;;-0.88;100.00
38812;BME280;24553;51.640;-0.752;2023-02-28T02:24:48;102551.44;;;-0.93;100.00
38812;BME280;24553;51.640;-0.752;2023-02-28T02:36:35;102563.22;;;-1.05;100.00
38812;BME280;24553;51.640;-0.752;2023-02-28T02:41:50;102556.53;;;-1.11;100.00
38812;BME280;24553;51.640;-0.752;2023-02-28T02:44:38;102561.50;;;-1.06;100.00
38812;BME280;24553;51.640;-0.752;2023-02-28T02:47:09;102559.84;;;-1.07;100.00
38812;BME280;24553;51.640;-0.752;2023-02-28T02:49:38;102553.84;;;-1.09;100.00
38812;BME280;24553;51.640;-0.752;2023-02-28T02:52:09;102554.81;;;-1.12;100.00
38812;BME280;24553;51.640;-0.752;2023-02-28T02:54:38;102555.59;;;-1.10;100.00
38812;BME280;24553;51.640;-0.752;2023-02-28T02:57:23;102559.13;;;-1.11;100.00
38812;BME280;24553;51.640;-0.752;2023-02-28T02:59:51;102561.00;;;-1.14;100.00
38812;BME280;24553;51.640;-0.752;2023-02-28T03:02:19;102563.56;;;-1.13;100.00
38812;BME280;24553;51.640;-0.752;2023-02-28T03:04:50;102550.53;;;-1.13;100.00
38812;BME280;24553;51.640;-0.752;2023-02-28T03:07:16;102558.25;;;-1.11;100.00
38812;BME280;24553;51.640;-0.752;2023-02-28T03:09:50;102562.06;;;-1.18;100.00
38812;BME280;24553;51.640;-0.752;2023-02-28T03:12:16;102560.44;;;-1.21;100.00
38812;BME280;24553;51.640;-0.752;2023-02-28T03:17:44;102567.63;;;-1.27;100.00
38812;BME280;24553;51.640;-0.752;2023-02-28T03:30:36;102565.41;;;-0.55;100.00
38812;BME280;24553;51.640;-0.752;2023-02-28T03:33:10;102566.19;;;-0.53;100.00
38812;BME280;24553;51.640;-0.752;2023-02-28T03:36:06;102564.00;;;-0.43;100.00
38812;BME280;24553;51.640;-0.752;2023-02-28T03:38:41;102557.22;;;-0.47;100.00
38812;BME280;24553;51.640;-0.752;2023-02-28T03:41:19;102556.53;;;-0.51;100.00
38812;BME280;24553;51.640;-0.752;2023-02-28T03:46:45;102547.16;;;-0.55;100.00
38812;BME280;24553;51.640;-0.752;2023-02-28T03:49:25;102551.31;;;-0.51;100.00
38812;BME280;24553;51.640;-0.752;2023-02-28T03:51:53;102549.63;;;-0.52;100.00
38812;BME280;24553;51.640;-0.752;2023-02-28T03:54:30;102543.84;;;-0.58;100.00
38812;BME280;24553;51.640;-0.752;2023-02-28T03:57:01;102541.25;;;-0.58;100.00
38812;BME280;24553;51.640;-0.752;2023-02-28T03:59:39;102545.66;;;-0.60;100.00
38812;BME280;24553;51.640;-0.752;2023-02-28T04:02:07;102546.75;;;-0.64;100.00
38812;BME280;24553;51.640;-0.752;2023-02-28T04:04:33;102543.81;;;-0.77;100.00
38812;BME280;24553;51.640;-0.752;2023-02-28T04:07:07;102553.66;;;-0.84;100.00
38812;BME280;24553;51.640;-0.752;2023-02-28T04:09:33;102555.56;;;-0.88;100.00
38812;BME280;24553;51.640;-0.752;2023-02-28T04:11:58;102553.19;;;-0.94;100.00
38812;BME280;24553;51.640;-0.752;2023-02-28T04:14:24;102554.81;;;-0.91;100.00
38812;BME280;24553;51.640;-0.752;2023-02-28T04:16:49;102553.69;;;-0.85;100.00
38812;BME280;24553;51.640;-0.752;2023-02-28T04:19:16;102545.97;;;-0.87;100.00
38812;BME280;24553;51.640;-0.752;2023-02-28T04:21:44;102551.38;;;-0.92;100.00
38812;BME280;24553;51.640;-0.752;2023-02-28T04:24:13;102557.56;;;-0.94;100.00
38812;BME280;24553;51.640;-0.752;2023-02-28T04:26:41;102554.25;;;-0.98;100.00
38812;BME280;24553;51.640;-0.752;2023-02-28T04:29:09;102560.94;;;-0.92;100.00
38812;BME280;24553;51.640;-0.752;2023-02-28T04:31:34;102565.69;;;-0.81;100.00
38812;BME280;24553;51.640;-0.752;2023-02-28T04:34:00;102562.13;;;-0.79;100.00
38812;BME280;24553;51.640;-0.752;2023-02-28T04:36:26;102555.09;;;-0.77;100.00
38812;BME280;24553;51.640;-0.752;2023-02-28T04:38:52;102563.69;;;-0.75;100.00
38812;BME280;24553;51.640;-0.752;2023-02-28T04:41:17;102561.13;;;-0.76;100.00
38812;BME280;24553;51.640;-0.752;2023-02-28T04:43:43;102562.06;;;-0.77;100.00
38812;BME280;24553;51.640;-0.752;2023-02-28T04:46:09;102573.56;;;-0.83;100.00
38812;BME280;24553;51.640;-0.752;2023-02-28T04:48:36;102568.91;;;-0.95;100.00
38812;BME280;24553;51.640;-0.752;2023-02-28T04:51:08;102577.56;;;-0.95;100.00
38812;BME280;24553;51.640;-0.752;2023-02-28T04:53:34;102571.09;;;-0.86;100.00
38812;BME280;24553;51.640;-0.752;2023-02-28T04:56:00;102569.00;;;-0.78;100.00
38812;BME280;24553;51.640;-0.752;2023-02-28T04:58:26;102564.84;;;-0.82;100.00
38812;BME280;24553;51.640;-0.752;2023-02-28T05:00:53;102571.03;;;-0.84;100.00
38812;BME280;24553;51.640;-0.752;2023-02-28T05:03:20;102569.13;;;-0.81;100.00
38812;BME280;24553;51.640;-0.752;2023-02-28T05:05:46;102571.22;;;-0.89;100.00
38812;BME280;24553;51.640;-0.752;2023-02-28T05:08:11;102578.13;;;-0.88;100.00
38812;BME280;24553;51.640;-0.752;2023-02-28T05:10:37;102581.38;;;-0.83;100.00
38812;BME280;24553;51.640;-0.752;2023-02-28T05:13:02;102572.53;;;-0.79;100.00
38812;BME280;24553;51.640;-0.752;2023-02-28T05:15:28;102580.28;;;-0.77;100.00
38812;BME280;24553;51.640;-0.752;2023-02-28T05:17:53;102584.78;;;-0.81;100.00
38812;BME280;24553;51.640;-0.752;2023-02-28T05:20:19;102587.50;;;-0.84;100.00
38812;BME280;24553;51.640;-0.752;2023-02-28T05:22:46;102585.84;;;-0.85;100.00
38812;BME280;24553;51.640;-0.752;2023-02-28T05:25:18;102589.28;;;-0.84;100.00
38812;BME280;24553;51.640;-0.752;2023-02-28T05:27:44;102581.50;;;-0.86;100.00
38812;BME280;24553;51.640;-0.752;2023-02-28T05:30:10;102579.69;;;-0.84;100.00
38812;BME280;24553;51.640;-0.752;2023-02-28T05:32:37;102584.97;;;-0.85;100.00
38812;BME280;24553;51.640;-0.752;2023-02-28T05:35:03;102588.50;;;-0.86;100.00
38812;BME280;24553;51.640;-0.752;2023-02-28T05:37:28;102592.91;;;-0.89;100.00
38812;BME280;24553;51.640;-0.752;2023-02-28T05:39:54;102591.38;;;-0.93;100.00
38812;BME280;24553;51.640;-0.752;2023-02-28T05:42:19;102590.50;;;-0.93;100.00
38812;BME280;24553;51.640;-0.752;2023-02-28T05:44:44;102596.81;;;-0.99;100.00
38812;BME280;24553;51.640;-0.752;2023-02-28T05:47:10;102589.66;;;-0.94;100.00
38812;BME280;24553;51.640;-0.752;2023-02-28T05:49:35;102590.25;;;-0.87;100.00
38812;BME280;24553;51.640;-0.752;2023-02-28T05:52:00;102588.53;;;-0.88;100.00
38812;BME280;24553;51.640;-0.752;2023-02-28T05:54:26;102591.41;;;-0.94;100.00
38812;BME280;24553;51.640;-0.752;2023-02-28T05:56:51;102601.19;;;-0.99;100.00
38812;BME280;24553;51.640;-0.752;2023-02-28T05:59:16;102592.56;;;-1.01;100.00
38812;BME280;24553;51.640;-0.752;2023-02-28T06:01:44;102589.09;;;-1.00;100.00
38812;BME280;24553;51.640;-0.752;2023-02-28T06:04:14;102592.22;;;-0.92;100.00
38812;BME280;24553;51.640;-0.752;2023-02-28T06:06:43;102593.19;;;-0.95;100.00
38812;BME280;24553;51.640;-0.752;2023-02-28T06:09:10;102601.44;;;-1.05;100.00
38812;BME280;24553;51.640;-0.752;2023-02-28T06:11:35;102602.16;;;-1.02;100.00
38812;BME280;24553;51.640;-0.752;2023-02-28T06:14:00;102607.31;;;-1.00;100.00
38812;BME280;24553;51.640;-0.752;2023-02-28T06:16:27;102596.94;;;-1.02;100.00
38812;BME280;24553;51.640;-0.752;2023-02-28T06:18:53;102606.44;;;-1.01;100.00
38812;BME280;24553;51.640;-0.752;2023-02-28T06:21:21;102596.09;;;-1.02;100.00
38812;BME280;24553;51.640;-0.752;2023-02-28T06:23:47;102590.16;;;-1.06;100.00
38812;BME280;24553;51.640;-0.752;2023-02-28T06:26:12;102599.88;;;-1.10;100.00
38812;BME280;24553;51.640;-0.752;2023-02-28T06:28:38;102601.94;;;-1.18;100.00
38812;BME280;24553;51.640;-0.752;2023-02-28T06:31:08;102604.69;;;-1.21;100.00
38812;BME280;24553;51.640;-0.752;2023-02-28T06:33:34;102598.06;;;-1.29;100.00
38812;BME280;24553;51.640;-0.752;2023-02-28T06:35:59;102599.97;;;-1.33;100.00
38812;BME280;24553;51.640;-0.752;2023-02-28T06:38:25;102592.16;;;-1.33;100.00
38812;BME280;24553;51.640;-0.752;2023-02-28T06:40:58;102594.06;;;-1.37;100.00
38812;BME280;24553;51.640;-0.752;2023-02-28T06:43:25;102591.78;;;-1.24;100.00
38812;BME280;24553;51.640;-0.752;2023-02-28T06:45:54;102597.00;;;-1.24;100.00
38812;BME280;24553;51.640;-0.752;2023-02-28T06:48:20;102593.34;;;-1.20;100.00
38812;BME280;24553;51.640;-0.752;2023-02-28T06:50:45;102599.25;;;-1.16;100.00
38812;BME280;24553;51.640;-0.752;2023-02-28T06:53:12;102596.34;;;-1.08;100.00
38812;BME280;24553;51.640;-0.752;2023-02-28T06:55:38;102597.13;;;-1.06;100.00
38812;BME280;24553;51.640;-0.752;2023-02-28T06:58:03;102599.59;;;-1.03;100.00
38812;BME280;24553;51.640;-0.752;2023-02-28T07:00:38;102593.09;;;-0.93;100.00
38812;BME280;24553;51.640;-0.752;2023-02-28T07:03:03;102598.72;;;-0.82;100.00
38812;BME280;24553;51.640;-0.752;2023-02-28T07:05:29;102598.19;;;-0.70;100.00
38812;BME280;24553;51.640;-0.752;2023-02-28T07:07:54;102602.47;;;-0.48;100.00
38812;BME280;24553;51.640;-0.752;2023-02-28T07:10:20;102606.16;;;-0.33;100.00
38812;BME280;24553;51.640;-0.752;2023-02-28T07:12:45;102614.03;;;-0.35;100.00
38812;BME280;24553;51.640;-0.752;2023-02-28T07:15:10;102604.31;;;-0.31;100.00
38812;BME280;24553;51.640;-0.752;2023-02-28T07:17:36;102612.66;;;-0.23;100.00
38812;BME280;24553;51.640;-0.752;2023-02-28T07:20:01;102611.97;;;-0.08;100.00
38812;BME280;24553;51.640;-0.752;2023-02-28T07:22:29;102615.06;;;0.01;100.00
38812;BME280;24553;51.640;-0.752;2023-02-28T07:24:55;102611.13;;;0.11;100.00
38812;BME280;24553;51.640;-0.752;2023-02-28T07:27:20;102615.13;;;0.37;100.00
38812;BME280;24553;51.640;-0.752;2023-02-28T07:29:51;102614.50;;;0.68;100.00
38812;BME280;24553;51.640;-0.752;2023-02-28T07:32:17;102611.59;;;0.92;100.00
38812;BME280;24553;51.640;-0.752;2023-02-28T07:34:43;102605.59;;;1.07;100.00
38812;BME280;24553;51.640;-0.752;2023-02-28T07:37:09;102594.28;;;1.24;100.00
38812;BME280;24553;51.640;-0.752;2023-02-28T07:39:34;102599.94;;;1.49;100.00
38812;BME280;24553;51.640;-0.752;2023-02-28T07:41:59;102591.59;;;1.76;100.00
38812;BME280;24553;51.640;-0.752;2023-02-28T07:44:26;102595.81;;;1.94;100.00
38812;BME280;24553;51.640;-0.752;2023-02-28T07:46:51;102596.34;;;2.17;100.00
38812;BME280;24553;51.640;-0.752;2023-02-28T07:49:17;102603.91;;;2.53;100.00
38812;BME280;24553;51.640;-0.752;2023-02-28T07:51:43;102594.75;;;2.76;100.00
38812;BME280;24553;51.640;-0.752;2023-02-28T07:54:08;102606.50;;;2.99;100.00
38812;BME280;24553;51.640;-0.752;2023-02-28T07:56:33;102598.16;;;3.23;100.00
38812;BME280;24553;51.640;-0.752;2023-02-28T07:58:59;102597.94;;;3.40;100.00
38812;BME280;24553;51.640;-0.752;2023-02-28T08:01:24;102603.13;;;3.42;100.00
38812;BME280;24553;51.640;-0.752;2023-02-28T08:03:50;102602.94;;;3.59;100.00
38812;BME280;24553;51.640;-0.752;2023-02-28T08:06:21;102601.25;;;3.72;100.00
38812;BME280;24553;51.640;-0.752;2023-02-28T08:08:47;102604.81;;;4.00;100.00
38812;BME280;24553;51.640;-0.752;2023-02-28T08:11:12;102601.84;;;4.19;100.00
38812;BME280;24553;51.640;-0.752;2023-02-28T08:13:37;102604.25;;;4.36;100.00
38812;BME280;24553;51.640;-0.752;2023-02-28T08:16:03;102600.75;;;4.63;100.00
38812;BME280;24553;51.640;-0.752;2023-02-28T08:18:28;102600.09;;;4.87;100.00
38812;BME280;24553;51.640;-0.752;2023-02-28T08:20:54;102607.03;;;5.00;100.00
38812;BME280;24553;51.640;-0.752;2023-02-28T08:23:19;102604.13;;;5.18;100.00
38812;BME280;24553;51.640;-0.752;2023-02-28T08:25:45;102597.59;;;5.36;100.00
38812;BME280;24553;51.640;-0.752;2023-02-28T08:28:17;102603.09;;;5.46;100.00
38812;BME280;24553;51.640;-0.752;2023-02-28T08:30:42;102600.16;;;5.51;100.00
38812;BME280;24553;51.640;-0.752;2023-02-28T08:33:08;102593.41;;;5.59;100.00
38812;BME280;24553;51.640;-0.752;2023-02-28T08:35:35;102598.09;;;5.80;100.00
38812;BME280;24553;51.640;-0.752;2023-02-28T08:38:01;102592.72;;;6.07;100.00
38812;BME280;24553;51.640;-0.752;2023-02-28T08:40:26;102600.41;;;6.10;100.00
38812;BME280;24553;51.640;-0.752;2023-02-28T08:42:51;102592.44;;;6.23;100.00
38812;BME280;24553;51.640;-0.752;2023-02-28T08:45:17;102595.47;;;6.29;100.00
38812;BME280;24553;51.640;-0.752;2023-02-28T08:47:42;102596.25;;;6.43;100.00
38812;BME280;24553;51.640;-0.752;2023-02-28T08:50:08;102592.28;;;6.61;100.00
38812;BME280;24553;51.640;-0.752;2023-02-28T08:52:33;102584.41;;;6.72;100.00
38812;BME280;24553;51.640;-0.752;2023-02-28T08:54:59;102582.50;;;6.74;100.00
38812;BME280;24553;51.640;-0.752;2023-02-28T08:57:24;102580.38;;;6.80;100.00
38812;BME280;24553;51.640;-0.752;2023-02-28T08:59:53;102576.53;;;6.84;100.00
38812;BME280;24553;51.640;-0.752;2023-02-28T09:02:18;102577.25;;;6.74;100.00
38812;BME280;24553;51.640;-0.752;2023-02-28T09:04:44;102581.69;;;6.85;100.00
38812;BME280;24553;51.640;-0.752;2023-02-28T09:07:12;102584.31;;;6.74;100.00
38812;BME280;24553;51.640;-0.752;2023-02-28T09:09:38;102578.31;;;6.72;100.00
38812;BME280;24553;51.640;-0.752;2023-02-28T09:12:34;102582.78;;;6.94;100.00
38812;BME280;24553;51.640;-0.752;2023-02-28T09:15:00;102578.50;;;7.04;100.00
38812;BME280;24553;51.640;-0.752;2023-02-28T09:17:26;102583.19;;;7.12;100.00
38812;BME280;24553;51.640;-0.752;2023-02-28T09:19:51;102568.69;;;7.17;100.00
38812;BME280;24553;51.640;-0.752;2023-02-28T09:22:16;102570.97;;;7.11;100.00
38812;BME280;24553;51.640;-0.752;2023-02-28T09:24:42;102573.88;;;7.19;100.00
38812;BME280;24553;51.640;-0.752;2023-02-28T09:27:07;102579.16;;;7.30;100.00
38812;BME280;24553;51.640;-0.752;2023-02-28T09:29:33;102573.88;;;7.30;100.00
38812;BME280;24553;51.640;-0.752;2023-02-28T09:31:59;102573.06;;;7.41;100.00
38812;BME280;24553;51.640;-0.752;2023-02-28T09:34:25;102567.53;;;7.55;100.00
38812;BME280;24553;51.640;-0.752;2023-02-28T09:36:51;102560.84;;;7.51;100.00
38812;BME280;24553;51.640;-0.752;2023-02-28T09:39:21;102560.69;;;7.41;100.00
38812;BME280;24553;51.640;-0.752;2023-02-28T09:41:50;102559.72;;;7.76;100.00
38812;BME280;24553;51.640;-0.752;2023-02-28T09:44:25;102567.00;;;8.06;100.00
38812;BME280;24553;51.640;-0.752;2023-02-28T09:47:02;102562.63;;;8.39;100.00
38812;BME280;24553;51.640;-0.752;2023-02-28T09:49:44;102569.34;;;8.21;100.00
38812;BME280;24553;51.640;-0.752;2023-02-28T09:52:17;102570.88;;;7.91;100.00
38812;BME280;24553;51.640;-0.752;2023-02-28T09:54:44;102572.06;;;7.98;100.00
38812;BME280;24553;51.640;-0.752;2023-02-28T09:57:31;102574.34;;;8.03;100.00
38812;BME280;24553;51.640;-0.752;2023-02-28T10:00:29;102569.09;;;7.80;100.00
38812;BME280;24553;51.640;-0.752;2023-02-28T10:03:27;102560.69;;;7.75;100.00
38812;BME280;24553;51.640;-0.752;2023-02-28T10:08:38;102564.63;;;7.81;100.00
38812;BME280;24553;51.640;-0.752;2023-02-28T10:11:10;102568.81;;;8.06;100.00
38812;BME280;24553;51.640;-0.752;2023-02-28T10:13:50;102570.06;;;8.23;100.00
38812;BME280;24553;51.640;-0.752;2023-02-28T10:22:01;102562.13;;;8.23;100.00
38812;BME280;24553;51.640;-0.752;2023-02-28T10:24:39;102569.13;;;8.24;100.00
38812;BME280;24553;51.640;-0.752;2023-02-28T10:27:18;102557.31;;;8.28;100.00
38812;BME280;24553;51.640;-0.752;2023-02-28T10:29:51;102570.41;;;8.41;100.00
38812;BME280;24553;51.640;-0.752;2023-02-28T10:32:40;102566.13;;;8.61;100.00
38812;BME280;24553;51.640;-0.752;2023-02-28T10:35:33;102566.69;;;8.64;100.00
38812;BME280;24553;51.640;-0.752;2023-02-28T10:38:00;102549.00;;;8.76;100.00
38812;BME280;24553;51.640;-0.752;2023-02-28T10:40:34;102551.34;;;8.58;100.00
38812;BME280;24553;51.640;-0.752;2023-02-28T10:45:37;102554.13;;;8.57;100.00
38812;BME280;24553;51.640;-0.752;2023-02-28T10:56:06;102548.50;;;8.06;100.00
38812;BME280;24553;51.640;-0.752;2023-02-28T10:58:42;102549.00;;;8.00;100.00
38812;BME280;24553;51.640;-0.752;2023-02-28T11:01:15;102541.41;;;8.07;100.00
38812;BME280;24553;51.640;-0.752;2023-02-28T11:03:41;102542.47;;;8.16;100.00
38812;BME280;24553;51.640;-0.752;2023-02-28T11:06:13;102546.97;;;8.36;100.00
38812;BME280;24553;51.640;-0.752;2023-02-28T11:08:49;102536.66;;;8.44;100.00
38812;BME280;24553;51.640;-0.752;2023-02-28T11:11:15;102542.78;;;8.66;100.00
38812;BME280;24553;51.640;-0.752;2023-02-28T11:13:42;102531.13;;;8.68;100.00
38812;BME280;24553;51.640;-0.752;2023-02-28T11:16:11;102539.31;;;8.86;100.00
38812;BME280;24553;51.640;-0.752;2023-02-28T11:18:41;102528.78;;;8.75;100.00
38812;BME280;24553;51.640;-0.752;2023-02-28T11:21:08;102530.75;;;8.73;100.00
38812;BME280;24553;51.640;-0.752;2023-02-28T11:23:35;102524.84;;;8.90;100.00
38812;BME280;24553;51.640;-0.752;2023-02-28T11:26:03;102524.84;;;8.90;100.00
38812;BME280;24553;51.640;-0.752;2023-02-28T11:28:35;102523.56;;;8.64;100.00
38812;BME280;24553;51.640;-0.752;2023-02-28T11:31:05;102529.81;;;8.63;100.00
38812;BME280;24553;51.640;-0.752;2023-02-28T11:33:37;102528.34;;;8.70;100.00
38812;BME280;24553;51.640;-0.752;2023-02-28T11:36:14;102530.13;;;8.48;100.00
38812;BME280;24553;51.640;-0.752;2023-02-28T11:38:40;102528.34;;;8.70;100.00
38812;BME280;24553;51.640;-0.752;2023-02-28T11:44:17;102506.72;;;8.86;100.00
38812;BME280;24553;51.640;-0.752;2023-02-28T11:46:58;102506.44;;;9.10;100.00
38812;BME280;24553;51.640;-0.752;2023-02-28T11:49:42;102495.63;;;9.23;100.00
38812;BME280;24553;51.640;-0.752;2023-02-28T11:55:16;102482.16;;;9.35;100.00
38812;BME280;24553;51.640;-0.752;2023-02-28T12:06:18;102484.66;;;9.37;100.00
38812;BME280;24553;51.640;-0.752;2023-02-28T12:13:48;102467.66;;;9.39;100.00
38812;BME280;24553;51.640;-0.752;2023-02-28T12:16:29;102468.78;;;9.37;100.00
38812;BME280;24553;51.640;-0.752;2023-02-28T12:26:46;102449.72;;;9.43;100.00
38812;BME280;24553;51.640;-0.752;2023-02-28T12:29:22;102442.50;;;9.45;100.00
38812;BME280;24553;51.640;-0.752;2023-02-28T12:32:05;102431.97;;;9.24;100.00
38812;BME280;24553;51.640;-0.752;2023-02-28T12:34:35;102413.16;;;9.17;100.00
38812;BME280;24553;51.640;-0.752;2023-02-28T12:37:06;102403.53;;;9.16;100.00
38812;BME280;24553;51.640;-0.752;2023-02-28T12:39:37;102386.28;;;9.22;100.00
38812;BME280;24553;51.640;-0.752;2023-02-28T12:42:13;102380.97;;;9.32;100.00
38812;BME280;24553;51.640;-0.752;2023-02-28T12:45:02;102377.97;;;9.46;100.00
38812;BME280;24553;51.640;-0.752;2023-02-28T12:47:30;102389.13;;;9.59;100.00
38812;BME280;24553;51.640;-0.752;2023-02-28T12:50:02;102395.00;;;9.63;100.00
38812;BME280;24553;51.640;-0.752;2023-02-28T12:52:51;102396.09;;;9.70;100.00
38812;BME280;24553;51.640;-0.752;2023-02-28T12:55:33;102371.44;;;9.79;100.00
38812;BME280;24553;51.640;-0.752;2023-02-28T13:09:26;102371.56;;;10.07;100.00
38812;BME280;24553;51.640;-0.752;2023-02-28T13:11:53;102355.66;;;9.97;100.00
38812;BME280;24553;51.640;-0.752;2023-02-28T13:19:34;102356.44;;;10.37;100.00
38812;BME280;24553;51.640;-0.752;2023-02-28T13:22:01;102356.34;;;10.29;100.00
38812;BME280;24553;51.640;-0.752;2023-02-28T13:24:51;102366.78;;;10.20;100.00
38812;BME280;24553;51.640;-0.752;2023-02-28T13:27:24;102352.84;;;10.28;100.00
38812;BME280;24553;51.640;-0.752;2023-02-28T13:29:56;102351.28;;;10.25;100.00
38812;BME280;24553;51.640;-0.752;2023-02-28T13:39:48;102332.13;;;11.06;100.00
38812;BME280;24553;51.640;-0.752;2023-02-28T13:42:34;102323.38;;;10.96;100.00
38812;BME280;24553;51.640;-0.752;2023-02-28T13:47:30;102324.34;;;11.05;100.00
38812;BME280;24553;51.640;-0.752;2023-02-28T13:50:24;102326.81;;;11.06;100.00
38812;BME280;24553;51.640;-0.752;2023-02-28T14:00:45;102316.19;;;11.06;100.00
38812;BME280;24553;51.640;-0.752;2023-02-28T14:03:34;102304.84;;;11.14;100.00
38812;BME280;24553;51.640;-0.752;2023-02-28T14:08:35;102294.88;;;10.70;100.00
38812;BME280;24553;51.640;-0.752;2023-02-28T14:11:25;102287.63;;;10.73;100.00
38812;BME280;24553;51.640;-0.752;2023-02-28T14:13:51;102280.94;;;10.68;100.00
38812;BME280;24553;51.640;-0.752;2023-02-28T14:16:21;102281.94;;;10.67;100.00
38812;BME280;24553;51.640;-0.752;2023-02-28T14:18:50;102282.84;;;10.76;100.00
38812;BME280;24553;51.640;-0.752;2023-02-28T14:26:58;102284.13;;;11.18;100.00
38812;BME280;24553;51.640;-0.752;2023-02-28T14:29:43;102280.31;;;11.20;100.00
38812;BME280;24553;51.640;-0.752;2023-02-28T14:38:32;102271.00;;;11.16;100.00
38812;BME280;24553;51.640;-0.752;2023-02-28T14:41:04;102268.59;;;11.05;100.00
38812;BME280;24553;51.640;-0.752;2023-02-28T14:43:31;102260.59;;;11.23;100.00
38812;BME280;24553;51.640;-0.752;2023-02-28T14:46:00;102257.56;;;11.18;100.00
38812;BME280;24553;51.640;-0.752;2023-02-28T14:48:26;102260.16;;;11.27;100.00
38812;BME280;24553;51.640;-0.752;2023-02-28T14:50:59;102247.88;;;11.08;100.00
38812;BME280;24553;51.640;-0.752;2023-02-28T14:53:29;102235.59;;;10.89;100.00
38812;BME280;24553;51.640;-0.752;2023-02-28T14:55:55;102242.25;;;10.94;100.00
38812;BME280;24553;51.640;-0.752;2023-02-28T14:58:32;102245.34;;;11.07;100.00